sensor_id;sensor_type;location;lat;lon;timestamp;P1;durP1;ratioP1;P2;durP2;ratioP2
37831;SDS011;23671;38.090;-122.570;2022-07-17T00:01:35;2.40;;;0.95;;
37831;SDS011;23671;38.090;-122.570;2022-07-17T00:04:02;2.08;;;0.90;;
37831;SDS011;23671;38.090;-122.570;2022-07-17T00:06:29;1.88;;;1.00;;
37831;SDS011;23671;38.090;-122.570;2022-07-17T00:08:56;1.58;;;0.73;;
37831;SDS011;23671;38.090;-122.570;2022-07-17T00:11:23;1.52;;;0.80;;
37831;SDS011;23671;38.090;-122.570;2022-07-17T00:13:51;1.83;;;0.93;;
37831;SDS011;23671;38.090;-122.570;2022-07-17T00:16:18;1.73;;;1.08;;
37831;SDS011;23671;38.090;-122.570;2022-07-17T00:18:45;0.82;;;0.80;;
37831;SDS011;23671;38.090;-122.570;2022-07-17T00:21:12;2.42;;;1.00;;
37831;SDS011;23671;38.090;-122.570;2022-07-17T00:23:40;2.55;;;1.00;;
37831;SDS011;23671;38.090;-122.570;2022-07-17T00:26:07;2.28;;;1.10;;
37831;SDS011;23671;38.090;-122.570;2022-07-17T00:28:34;2.90;;;1.17;;
37831;SDS011;23671;38.090;-122.570;2022-07-17T00:31:01;2.33;;;0.98;;
37831;SDS011;23671;38.090;-122.570;2022-07-17T00:33:28;2.03;;;1.00;;
37831;SDS011;23671;38.090;-122.570;2022-07-17T00:35:55;3.78;;;1.38;;
37831;SDS011;23671;38.090;-122.570;2022-07-17T00:38:22;1.93;;;1.10;;
37831;SDS011;23671;38.090;-122.570;2022-07-17T00:40:52;2.03;;;1.00;;
37831;SDS011;23671;38.090;-122.570;2022-07-17T00:43:20;2.67;;;1.00;;
37831;SDS011;23671;38.090;-122.570;2022-07-17T00:45:58;2.78;;;1.00;;
37831;SDS011;23671;38.090;-122.570;2022-07-17T00:48:27;1.85;;;1.15;;
37831;SDS011;23671;38.090;-122.570;2022-07-17T00:50:54;2.20;;;1.17;;
37831;SDS011;23671;38.090;-122.570;2022-07-17T00:53:22;4.50;;;1.20;;
37831;SDS011;23671;38.090;-122.570;2022-07-17T00:55:49;3.83;;;1.17;;
37831;SDS011;23671;38.090;-122.570;2022-07-17T00:58:17;3.50;;;1.30;;
37831;SDS011;23671;38.090;-122.570;2022-07-17T01:00:47;3.67;;;1.30;;
37831;SDS011;23671;38.090;-122.570;2022-07-17T01:03:15;4.43;;;1.48;;
37831;SDS011;23671;38.090;-122.570;2022-07-17T01:05:43;3.83;;;1.40;;
37831;SDS011;23671;38.090;-122.570;2022-07-17T01:08:11;3.33;;;1.30;;
37831;SDS011;23671;38.090;-122.570;2022-07-17T01:10:38;3.70;;;1.20;;
37831;SDS011;23671;38.090;-122.570;2022-07-17T01:13:06;4.10;;;1.60;;
37831;SDS011;23671;38.090;-122.570;2022-07-17T01:15:35;3.30;;;1.38;;
37831;SDS011;23671;38.090;-122.570;2022-07-17T01:18:10;2.75;;;1.38;;
37831;SDS011;23671;38.090;-122.570;2022-07-17T01:20:39;3.50;;;1.40;;
37831;SDS011;23671;38.090;-122.570;2022-07-17T01:23:07;3.38;;;1.23;;
37831;SDS011;23671;38.090;-122.570;2022-07-17T01:25:35;4.50;;;1.50;;
37831;SDS011;23671;38.090;-122.570;2022-07-17T01:28:02;6.10;;;1.48;;
37831;SDS011;23671;38.090;-122.570;2022-07-17T01:32:57;3.28;;;1.30;;
37831;SDS011;23671;38.090;-122.570;2022-07-17T01:35:24;3.47;;;1.52;;
37831;SDS011;23671;38.090;-122.570;2022-07-17T01:37:51;4.38;;;1.20;;
37831;SDS011;23671;38.090;-122.570;2022-07-17T01:40:18;1.48;;;1.10;;
37831;SDS011;23671;38.090;-122.570;2022-07-17T01:42:46;4.17;;;1.37;;
37831;SDS011;23671;38.090;-122.570;2022-07-17T01:45:16;3.50;;;1.40;;
37831;SDS011;23671;38.090;-122.570;2022-07-17T01:47:44;2.40;;;1.25;;
37831;SDS011;23671;38.090;-122.570;2022-07-17T01:50:12;3.20;;;1.40;;
37831;SDS011;23671;38.090;-122.570;2022-07-17T01:52:41;1.65;;;1.05;;
37831;SDS011;23671;38.090;-122.570;2022-07-17T01:55:10;3.80;;;1.38;;
37831;SDS011;23671;38.090;-122.570;2022-07-17T01:57:39;2.58;;;1.20;;
37831;SDS011;23671;38.090;-122.570;2022-07-17T02:00:08;4.25;;;1.40;;
37831;SDS011;23671;38.090;-122.570;2022-07-17T02:02:39;3.85;;;1.40;;
37831;SDS011;23671;38.090;-122.570;2022-07-17T02:05:06;3.08;;;1.25;;
37831;SDS011;23671;38.090;-122.570;2022-07-17T02:07:34;2.10;;;1.23;;
37831;SDS011;23671;38.090;-122.570;2022-07-17T02:10:05;4.50;;;1.63;;
37831;SDS011;23671;38.090;-122.570;2022-07-17T02:12:34;3.85;;;1.50;;
37831;SDS011;23671;38.090;-122.570;2022-07-17T02:15:02;4.35;;;1.40;;
37831;SDS011;23671;38.090;-122.570;2022-07-17T02:17:30;3.25;;;1.50;;
37831;SDS011;23671;38.090;-122.570;2022-07-17T02:19:57;3.17;;;1.30;;
37831;SDS011;23671;38.090;-122.570;2022-07-17T02:22:24;5.63;;;1.60;;
37831;SDS011;23671;38.090;-122.570;2022-07-17T02:24:51;3.55;;;1.65;;
37831;SDS011;23671;38.090;-122.570;2022-07-17T02:27:18;3.53;;;1.52;;
37831;SDS011;23671;38.090;-122.570;2022-07-17T02:29:45;4.22;;;1.48;;
37831;SDS011;23671;38.090;-122.570;2022-07-17T02:32:11;5.45;;;1.58;;
37831;SDS011;23671;38.090;-122.570;2022-07-17T02:34:38;4.65;;;1.73;;
37831;SDS011;23671;38.090;-122.570;2022-07-17T02:37:05;4.22;;;1.50;;
37831;SDS011;23671;38.090;-122.570;2022-07-17T02:39:32;3.65;;;1.50;;
37831;SDS011;23671;38.090;-122.570;2022-07-17T02:41:59;3.80;;;1.60;;
37831;SDS011;23671;38.090;-122.570;2022-07-17T02:44:26;3.63;;;1.38;;
37831;SDS011;23671;38.090;-122.570;2022-07-17T02:46:53;4.90;;;1.60;;
37831;SDS011;23671;38.090;-122.570;2022-07-17T02:49:20;6.03;;;1.90;;
37831;SDS011;23671;38.090;-122.570;2022-07-17T02:51:47;5.00;;;1.65;;
37831;SDS011;23671;38.090;-122.570;2022-07-17T02:54:14;3.28;;;1.77;;
37831;SDS011;23671;38.090;-122.570;2022-07-17T02:56:41;2.25;;;1.38;;
37831;SDS011;23671;38.090;-122.570;2022-07-17T02:59:08;4.45;;;1.77;;
37831;SDS011;23671;38.090;-122.570;2022-07-17T03:01:35;5.60;;;1.90;;
37831;SDS011;23671;38.090;-122.570;2022-07-17T03:04:21;4.57;;;1.50;;
37831;SDS011;23671;38.090;-122.570;2022-07-17T03:06:48;3.78;;;1.75;;
37831;SDS011;23671;38.090;-122.570;2022-07-17T03:09:15;4.32;;;1.38;;
37831;SDS011;23671;38.090;-122.570;2022-07-17T03:11:42;5.30;;;1.63;;
37831;SDS011;23671;38.090;-122.570;2022-07-17T03:14:09;4.82;;;1.95;;
37831;SDS011;23671;38.090;-122.570;2022-07-17T03:16:36;4.60;;;1.58;;
37831;SDS011;23671;38.090;-122.570;2022-07-17T03:19:03;6.38;;;1.80;;
37831;SDS011;23671;38.090;-122.570;2022-07-17T03:21:30;3.60;;;1.70;;
37831;SDS011;23671;38.090;-122.570;2022-07-17T03:23:57;4.03;;;1.65;;
37831;SDS011;23671;38.090;-122.570;2022-07-17T03:26:24;4.28;;;1.45;;
37831;SDS011;23671;38.090;-122.570;2022-07-17T03:28:51;6.70;;;2.47;;
37831;SDS011;23671;38.090;-122.570;2022-07-17T03:31:18;8.02;;;2.63;;
37831;SDS011;23671;38.090;-122.570;2022-07-17T03:33:45;8.20;;;2.75;;
37831;SDS011;23671;38.090;-122.570;2022-07-17T03:36:12;6.95;;;2.38;;
37831;SDS011;23671;38.090;-122.570;2022-07-17T03:38:39;7.32;;;2.20;;
37831;SDS011;23671;38.090;-122.570;2022-07-17T03:41:05;19.80;;;9.45;;
37831;SDS011;23671;38.090;-122.570;2022-07-17T03:43:32;9.95;;;3.88;;
37831;SDS011;23671;38.090;-122.570;2022-07-17T03:45:59;5.82;;;2.70;;
37831;SDS011;23671;38.090;-122.570;2022-07-17T03:48:26;7.60;;;3.60;;
37831;SDS011;23671;38.090;-122.570;2022-07-17T03:50:54;9.53;;;5.03;;
37831;SDS011;23671;38.090;-122.570;2022-07-17T03:53:21;7.18;;;4.30;;
37831;SDS011;23671;38.090;-122.570;2022-07-17T03:55:48;8.43;;;3.80;;
37831;SDS011;23671;38.090;-122.570;2022-07-17T03:58:15;7.82;;;3.58;;
37831;SDS011;23671;38.090;-122.570;2022-07-17T04:00:42;7.47;;;3.72;;
37831;SDS011;23671;38.090;-122.570;2022-07-17T04:03:09;8.60;;;3.88;;
37831;SDS011;23671;38.090;-122.570;2022-07-17T04:05:36;7.30;;;3.35;;
37831;SDS011;23671;38.090;-122.570;2022-07-17T04:08:03;5.95;;;3.13;;
37831;SDS011;23671;38.090;-122.570;2022-07-17T04:10:30;5.78;;;2.80;;
37831;SDS011;23671;38.090;-122.570;2022-07-17T04:12:57;6.88;;;3.10;;
37831;SDS011;23671;38.090;-122.570;2022-07-17T04:15:24;6.18;;;2.95;;
37831;SDS011;23671;38.090;-122.570;2022-07-17T04:18:10;5.60;;;2.40;;
37831;SDS011;23671;38.090;-122.570;2022-07-17T04:20:37;7.75;;;2.80;;
37831;SDS011;23671;38.090;-122.570;2022-07-17T04:23:04;8.13;;;2.80;;
37831;SDS011;23671;38.090;-122.570;2022-07-17T04:25:31;6.32;;;3.10;;
37831;SDS011;23671;38.090;-122.570;2022-07-17T04:27:58;6.85;;;2.70;;
37831;SDS011;23671;38.090;-122.570;2022-07-17T04:30:25;6.43;;;2.72;;
37831;SDS011;23671;38.090;-122.570;2022-07-17T04:32:52;5.53;;;2.33;;
37831;SDS011;23671;38.090;-122.570;2022-07-17T04:35:19;5.25;;;2.28;;
37831;SDS011;23671;38.090;-122.570;2022-07-17T04:37:46;4.50;;;1.90;;
37831;SDS011;23671;38.090;-122.570;2022-07-17T04:40:32;4.88;;;2.65;;
37831;SDS011;23671;38.090;-122.570;2022-07-17T04:43:00;10.52;;;3.40;;
37831;SDS011;23671;38.090;-122.570;2022-07-17T04:45:27;6.35;;;2.55;;
37831;SDS011;23671;38.090;-122.570;2022-07-17T04:47:54;5.35;;;2.45;;
37831;SDS011;23671;38.090;-122.570;2022-07-17T04:50:22;4.50;;;2.30;;
37831;SDS011;23671;38.090;-122.570;2022-07-17T04:52:49;7.25;;;2.42;;
37831;SDS011;23671;38.090;-122.570;2022-07-17T04:55:16;4.25;;;2.50;;
37831;SDS011;23671;38.090;-122.570;2022-07-17T04:57:43;5.68;;;2.42;;
37831;SDS011;23671;38.090;-122.570;2022-07-17T05:00:11;4.85;;;2.53;;
37831;SDS011;23671;38.090;-122.570;2022-07-17T05:02:40;6.00;;;2.40;;
37831;SDS011;23671;38.090;-122.570;2022-07-17T05:05:07;4.78;;;2.45;;
37831;SDS011;23671;38.090;-122.570;2022-07-17T05:07:34;5.28;;;2.45;;
37831;SDS011;23671;38.090;-122.570;2022-07-17T05:10:01;5.18;;;2.33;;
37831;SDS011;23671;38.090;-122.570;2022-07-17T05:12:29;8.15;;;2.20;;
37831;SDS011;23671;38.090;-122.570;2022-07-17T05:14:56;4.75;;;2.28;;
37831;SDS011;23671;38.090;-122.570;2022-07-17T05:17:24;4.85;;;2.13;;
37831;SDS011;23671;38.090;-122.570;2022-07-17T05:19:51;5.00;;;2.17;;
37831;SDS011;23671;38.090;-122.570;2022-07-17T05:22:18;6.13;;;2.72;;
37831;SDS011;23671;38.090;-122.570;2022-07-17T05:24:45;5.18;;;2.20;;
37831;SDS011;23671;38.090;-122.570;2022-07-17T05:27:12;3.97;;;2.25;;
37831;SDS011;23671;38.090;-122.570;2022-07-17T05:29:39;6.38;;;2.17;;
37831;SDS011;23671;38.090;-122.570;2022-07-17T05:32:06;6.60;;;2.83;;
37831;SDS011;23671;38.090;-122.570;2022-07-17T05:34:33;4.38;;;2.10;;
37831;SDS011;23671;38.090;-122.570;2022-07-17T05:37:00;6.53;;;2.88;;
37831;SDS011;23671;38.090;-122.570;2022-07-17T05:39:27;5.80;;;2.55;;
37831;SDS011;23671;38.090;-122.570;2022-07-17T05:41:54;5.38;;;2.40;;
37831;SDS011;23671;38.090;-122.570;2022-07-17T05:44:21;5.88;;;2.92;;
37831;SDS011;23671;38.090;-122.570;2022-07-17T05:46:48;4.82;;;2.25;;
37831;SDS011;23671;38.090;-122.570;2022-07-17T05:49:15;6.10;;;2.63;;
37831;SDS011;23671;38.090;-122.570;2022-07-17T05:51:42;5.75;;;2.15;;
37831;SDS011;23671;38.090;-122.570;2022-07-17T05:54:09;7.07;;;2.80;;
37831;SDS011;23671;38.090;-122.570;2022-07-17T05:56:36;4.90;;;1.98;;
37831;SDS011;23671;38.090;-122.570;2022-07-17T05:59:03;7.53;;;2.80;;
37831;SDS011;23671;38.090;-122.570;2022-07-17T06:01:30;6.15;;;2.13;;
37831;SDS011;23671;38.090;-122.570;2022-07-17T06:03:57;7.65;;;2.45;;
37831;SDS011;23671;38.090;-122.570;2022-07-17T06:06:24;6.57;;;2.42;;
37831;SDS011;23671;38.090;-122.570;2022-07-17T06:08:51;3.72;;;2.22;;
37831;SDS011;23671;38.090;-122.570;2022-07-17T06:11:18;6.00;;;2.78;;
37831;SDS011;23671;38.090;-122.570;2022-07-17T06:13:45;7.18;;;2.53;;
37831;SDS011;23671;38.090;-122.570;2022-07-17T06:16:12;5.90;;;2.70;;
37831;SDS011;23671;38.090;-122.570;2022-07-17T06:18:39;6.22;;;2.40;;
37831;SDS011;23671;38.090;-122.570;2022-07-17T06:21:06;6.05;;;2.90;;
37831;SDS011;23671;38.090;-122.570;2022-07-17T06:23:33;5.95;;;2.45;;
37831;SDS011;23671;38.090;-122.570;2022-07-17T06:26:00;5.10;;;2.38;;
37831;SDS011;23671;38.090;-122.570;2022-07-17T06:28:27;6.57;;;2.65;;
37831;SDS011;23671;38.090;-122.570;2022-07-17T06:30:54;5.55;;;2.63;;
37831;SDS011;23671;38.090;-122.570;2022-07-17T06:33:21;6.97;;;2.70;;
37831;SDS011;23671;38.090;-122.570;2022-07-17T06:35:48;6.20;;;2.58;;
37831;SDS011;23671;38.090;-122.570;2022-07-17T06:38:15;6.32;;;2.53;;
37831;SDS011;23671;38.090;-122.570;2022-07-17T06:40:42;7.10;;;2.63;;
37831;SDS011;23671;38.090;-122.570;2022-07-17T06:43:09;6.25;;;3.17;;
37831;SDS011;23671;38.090;-122.570;2022-07-17T06:45:36;4.40;;;2.30;;
37831;SDS011;23671;38.090;-122.570;2022-07-17T06:48:03;5.38;;;2.50;;
37831;SDS011;23671;38.090;-122.570;2022-07-17T06:50:30;5.22;;;2.67;;
37831;SDS011;23671;38.090;-122.570;2022-07-17T06:52:57;6.60;;;2.63;;
37831;SDS011;23671;38.090;-122.570;2022-07-17T06:55:24;5.38;;;2.53;;
37831;SDS011;23671;38.090;-122.570;2022-07-17T06:57:51;5.10;;;2.33;;
37831;SDS011;23671;38.090;-122.570;2022-07-17T07:00:18;6.57;;;2.58;;
37831;SDS011;23671;38.090;-122.570;2022-07-17T07:02:45;6.43;;;2.45;;
37831;SDS011;23671;38.090;-122.570;2022-07-17T07:05:12;6.68;;;2.50;;
37831;SDS011;23671;38.090;-122.570;2022-07-17T07:07:39;8.48;;;3.13;;
37831;SDS011;23671;38.090;-122.570;2022-07-17T07:10:06;7.32;;;2.85;;
37831;SDS011;23671;38.090;-122.570;2022-07-17T07:12:34;5.10;;;2.40;;
37831;SDS011;23671;38.090;-122.570;2022-07-17T07:15:01;5.10;;;2.92;;
37831;SDS011;23671;38.090;-122.570;2022-07-17T07:17:29;5.18;;;2.33;;
37831;SDS011;23671;38.090;-122.570;2022-07-17T07:19:57;6.07;;;2.33;;
37831;SDS011;23671;38.090;-122.570;2022-07-17T07:22:25;6.45;;;2.67;;
37831;SDS011;23671;38.090;-122.570;2022-07-17T07:24:52;6.75;;;2.72;;
37831;SDS011;23671;38.090;-122.570;2022-07-17T07:27:19;6.40;;;2.95;;
37831;SDS011;23671;38.090;-122.570;2022-07-17T07:29:46;5.90;;;2.30;;
37831;SDS011;23671;38.090;-122.570;2022-07-17T07:32:13;7.05;;;2.55;;
37831;SDS011;23671;38.090;-122.570;2022-07-17T07:34:40;5.95;;;2.42;;
37831;SDS011;23671;38.090;-122.570;2022-07-17T07:37:07;7.80;;;3.25;;
37831;SDS011;23671;38.090;-122.570;2022-07-17T07:39:34;7.22;;;2.53;;
37831;SDS011;23671;38.090;-122.570;2022-07-17T07:42:01;8.15;;;2.83;;
37831;SDS011;23671;38.090;-122.570;2022-07-17T07:44:28;6.13;;;2.60;;
37831;SDS011;23671;38.090;-122.570;2022-07-17T07:46:58;7.30;;;2.92;;
37831;SDS011;23671;38.090;-122.570;2022-07-17T07:49:25;5.43;;;2.40;;
37831;SDS011;23671;38.090;-122.570;2022-07-17T07:51:53;5.75;;;2.33;;
37831;SDS011;23671;38.090;-122.570;2022-07-17T07:54:20;4.70;;;2.47;;
37831;SDS011;23671;38.090;-122.570;2022-07-17T07:56:47;5.85;;;2.75;;
37831;SDS011;23671;38.090;-122.570;2022-07-17T07:59:15;8.63;;;2.85;;
37831;SDS011;23671;38.090;-122.570;2022-07-17T08:01:41;5.25;;;2.35;;
37831;SDS011;23671;38.090;-122.570;2022-07-17T08:04:08;3.70;;;2.10;;
37831;SDS011;23671;38.090;-122.570;2022-07-17T08:06:35;5.60;;;2.67;;
37831;SDS011;23671;38.090;-122.570;2022-07-17T08:09:03;6.97;;;2.77;;
37831;SDS011;23671;38.090;-122.570;2022-07-17T08:11:31;7.68;;;2.60;;
37831;SDS011;23671;38.090;-122.570;2022-07-17T08:13:58;6.15;;;2.80;;
37831;SDS011;23671;38.090;-122.570;2022-07-17T08:16:25;5.60;;;2.70;;
37831;SDS011;23671;38.090;-122.570;2022-07-17T08:18:52;6.00;;;2.72;;
37831;SDS011;23671;38.090;-122.570;2022-07-17T08:21:19;5.45;;;2.88;;
37831;SDS011;23671;38.090;-122.570;2022-07-17T08:26:14;7.72;;;2.70;;
37831;SDS011;23671;38.090;-122.570;2022-07-17T08:28:41;6.43;;;2.75;;
37831;SDS011;23671;38.090;-122.570;2022-07-17T08:31:08;6.60;;;3.10;;
37831;SDS011;23671;38.090;-122.570;2022-07-17T08:33:35;5.63;;;2.08;;
37831;SDS011;23671;38.090;-122.570;2022-07-17T08:36:02;7.38;;;2.38;;
37831;SDS011;23671;38.090;-122.570;2022-07-17T08:38:29;6.97;;;3.13;;
37831;SDS011;23671;38.090;-122.570;2022-07-17T08:40:56;6.15;;;2.55;;
37831;SDS011;23671;38.090;-122.570;2022-07-17T08:43:24;6.60;;;2.55;;
37831;SDS011;23671;38.090;-122.570;2022-07-17T08:45:51;6.75;;;2.47;;
37831;SDS011;23671;38.090;-122.570;2022-07-17T08:48:18;4.88;;;2.35;;
37831;SDS011;23671;38.090;-122.570;2022-07-17T08:50:46;7.70;;;2.85;;
37831;SDS011;23671;38.090;-122.570;2022-07-17T08:53:14;6.05;;;2.72;;
37831;SDS011;23671;38.090;-122.570;2022-07-17T08:55:41;5.20;;;2.20;;
37831;SDS011;23671;38.090;-122.570;2022-07-17T08:58:13;5.63;;;2.10;;
37831;SDS011;23671;38.090;-122.570;2022-07-17T09:00:41;5.82;;;2.50;;
37831;SDS011;23671;38.090;-122.570;2022-07-17T09:03:09;4.47;;;2.05;;
37831;SDS011;23671;38.090;-122.570;2022-07-17T09:05:37;5.90;;;2.17;;
37831;SDS011;23671;38.090;-122.570;2022-07-17T09:08:15;4.85;;;2.30;;
37831;SDS011;23671;38.090;-122.570;2022-07-17T09:10:45;5.80;;;2.60;;
37831;SDS011;23671;38.090;-122.570;2022-07-17T09:13:15;5.45;;;2.22;;
37831;SDS011;23671;38.090;-122.570;2022-07-17T09:15:47;6.05;;;2.47;;
37831;SDS011;23671;38.090;-122.570;2022-07-17T09:18:15;5.32;;;2.47;;
37831;SDS011;23671;38.090;-122.570;2022-07-17T09:20:47;5.80;;;2.58;;
37831;SDS011;23671;38.090;-122.570;2022-07-17T09:23:18;4.90;;;2.22;;
37831;SDS011;23671;38.090;-122.570;2022-07-17T09:25:50;7.53;;;2.20;;
37831;SDS011;23671;38.090;-122.570;2022-07-17T09:28:20;6.80;;;2.85;;
37831;SDS011;23671;38.090;-122.570;2022-07-17T09:30:49;7.55;;;2.42;;
37831;SDS011;23671;38.090;-122.570;2022-07-17T09:33:25;6.97;;;2.50;;
37831;SDS011;23671;38.090;-122.570;2022-07-17T09:35:57;5.88;;;2.10;;
37831;SDS011;23671;38.090;-122.570;2022-07-17T09:38:36;6.57;;;2.40;;
37831;SDS011;23671;38.090;-122.570;2022-07-17T09:41:12;4.88;;;2.70;;
37831;SDS011;23671;38.090;-122.570;2022-07-17T09:46:14;4.10;;;1.95;;
37831;SDS011;23671;38.090;-122.570;2022-07-17T09:49:03;4.70;;;2.30;;
37831;SDS011;23671;38.090;-122.570;2022-07-17T09:51:35;9.93;;;2.50;;
37831;SDS011;23671;38.090;-122.570;2022-07-17T09:59:09;5.03;;;2.25;;
37831;SDS011;23671;38.090;-122.570;2022-07-17T10:01:41;7.22;;;2.30;;
37831;SDS011;23671;38.090;-122.570;2022-07-17T10:04:09;6.07;;;2.50;;
37831;SDS011;23671;38.090;-122.570;2022-07-17T10:06:37;8.80;;;2.97;;
37831;SDS011;23671;38.090;-122.570;2022-07-17T10:09:05;5.88;;;2.45;;
37831;SDS011;23671;38.090;-122.570;2022-07-17T10:11:36;7.00;;;2.78;;
37831;SDS011;23671;38.090;-122.570;2022-07-17T10:14:06;6.70;;;2.55;;
37831;SDS011;23671;38.090;-122.570;2022-07-17T10:16:37;5.05;;;2.50;;
37831;SDS011;23671;38.090;-122.570;2022-07-17T10:19:20;6.63;;;2.63;;
37831;SDS011;23671;38.090;-122.570;2022-07-17T10:21:52;4.47;;;2.40;;
37831;SDS011;23671;38.090;-122.570;2022-07-17T10:24:27;4.30;;;2.25;;
37831;SDS011;23671;38.090;-122.570;2022-07-17T10:26:55;7.57;;;2.83;;
37831;SDS011;23671;38.090;-122.570;2022-07-17T10:29:33;5.57;;;2.20;;
37831;SDS011;23671;38.090;-122.570;2022-07-17T10:32:03;8.23;;;2.67;;
37831;SDS011;23671;38.090;-122.570;2022-07-17T10:37:14;5.13;;;2.22;;
37831;SDS011;23671;38.090;-122.570;2022-07-17T10:39:56;7.83;;;2.17;;
37831;SDS011;23671;38.090;-122.570;2022-07-17T10:42:42;5.18;;;2.22;;
37831;SDS011;23671;38.090;-122.570;2022-07-17T10:45:14;5.13;;;2.55;;
37831;SDS011;23671;38.090;-122.570;2022-07-17T10:50:24;6.25;;;2.63;;
37831;SDS011;23671;38.090;-122.570;2022-07-17T10:55:43;6.38;;;2.60;;
37831;SDS011;23671;38.090;-122.570;2022-07-17T10:58:16;7.45;;;2.47;;
37831;SDS011;23671;38.090;-122.570;2022-07-17T11:03:27;6.35;;;2.45;;
37831;SDS011;23671;38.090;-122.570;2022-07-17T11:06:01;5.43;;;2.40;;
37831;SDS011;23671;38.090;-122.570;2022-07-17T11:08:35;6.18;;;2.70;;
37831;SDS011;23671;38.090;-122.570;2022-07-17T11:11:23;6.70;;;2.28;;
37831;SDS011;23671;38.090;-122.570;2022-07-17T11:16:59;5.80;;;2.17;;
37831;SDS011;23671;38.090;-122.570;2022-07-17T11:19:30;6.40;;;2.65;;
37831;SDS011;23671;38.090;-122.570;2022-07-17T11:22:09;6.65;;;2.35;;
37831;SDS011;23671;38.090;-122.570;2022-07-17T11:24:42;6.45;;;2.38;;
37831;SDS011;23671;38.090;-122.570;2022-07-17T11:27:11;6.22;;;2.33;;
37831;SDS011;23671;38.090;-122.570;2022-07-17T11:29:45;6.63;;;2.38;;
37831;SDS011;23671;38.090;-122.570;2022-07-17T11:32:13;5.43;;;2.13;;
37831;SDS011;23671;38.090;-122.570;2022-07-17T11:34:40;5.40;;;2.28;;
37831;SDS011;23671;38.090;-122.570;2022-07-17T11:37:08;4.65;;;2.30;;
37831;SDS011;23671;38.090;-122.570;2022-07-17T11:39:45;5.70;;;2.70;;
37831;SDS011;23671;38.090;-122.570;2022-07-17T11:42:18;6.63;;;2.60;;
37831;SDS011;23671;38.090;-122.570;2022-07-17T11:44:49;6.13;;;2.30;;
37831;SDS011;23671;38.090;-122.570;2022-07-17T11:47:20;4.57;;;2.50;;
37831;SDS011;23671;38.090;-122.570;2022-07-17T11:49:49;5.57;;;2.45;;
37831;SDS011;23671;38.090;-122.570;2022-07-17T11:52:18;4.63;;;2.35;;
37831;SDS011;23671;38.090;-122.570;2022-07-17T11:54:47;7.13;;;2.88;;
37831;SDS011;23671;38.090;-122.570;2022-07-17T11:57:14;7.78;;;2.60;;
37831;SDS011;23671;38.090;-122.570;2022-07-17T11:59:42;7.40;;;2.40;;
37831;SDS011;23671;38.090;-122.570;2022-07-17T12:04:54;4.18;;;2.10;;
37831;SDS011;23671;38.090;-122.570;2022-07-17T12:07:23;4.20;;;2.15;;
37831;SDS011;23671;38.090;-122.570;2022-07-17T12:09:51;5.15;;;2.40;;
37831;SDS011;23671;38.090;-122.570;2022-07-17T12:12:24;7.57;;;2.10;;
37831;SDS011;23671;38.090;-122.570;2022-07-17T12:14:55;4.63;;;2.30;;
37831;SDS011;23671;38.090;-122.570;2022-07-17T12:17:24;4.60;;;2.38;;
37831;SDS011;23671;38.090;-122.570;2022-07-17T12:20:03;4.95;;;2.25;;
37831;SDS011;23671;38.090;-122.570;2022-07-17T12:22:41;7.28;;;2.65;;
37831;SDS011;23671;38.090;-122.570;2022-07-17T12:25:24;6.03;;;2.85;;
37831;SDS011;23671;38.090;-122.570;2022-07-17T12:27:53;4.00;;;2.17;;
37831;SDS011;23671;38.090;-122.570;2022-07-17T12:30:20;4.75;;;2.78;;
37831;SDS011;23671;38.090;-122.570;2022-07-17T12:32:47;6.00;;;2.70;;
37831;SDS011;23671;38.090;-122.570;2022-07-17T12:35:14;5.15;;;2.08;;
37831;SDS011;23671;38.090;-122.570;2022-07-17T12:37:42;7.88;;;3.17;;
37831;SDS011;23671;38.090;-122.570;2022-07-17T12:40:09;5.30;;;2.33;;
37831;SDS011;23671;38.090;-122.570;2022-07-17T12:42:36;5.07;;;2.38;;
37831;SDS011;23671;38.090;-122.570;2022-07-17T12:45:03;5.82;;;2.72;;
37831;SDS011;23671;38.090;-122.570;2022-07-17T12:47:31;6.40;;;2.80;;
37831;SDS011;23671;38.090;-122.570;2022-07-17T12:49:58;6.60;;;2.45;;
37831;SDS011;23671;38.090;-122.570;2022-07-17T12:52:25;4.88;;;2.63;;
37831;SDS011;23671;38.090;-122.570;2022-07-17T12:54:52;4.60;;;2.25;;
37831;SDS011;23671;38.090;-122.570;2022-07-17T12:57:19;6.53;;;2.58;;
37831;SDS011;23671;38.090;-122.570;2022-07-17T12:59:46;6.05;;;3.03;;
37831;SDS011;23671;38.090;-122.570;2022-07-17T13:02:13;5.85;;;2.50;;
37831;SDS011;23671;38.090;-122.570;2022-07-17T13:04:40;6.28;;;2.58;;
37831;SDS011;23671;38.090;-122.570;2022-07-17T13:07:06;5.80;;;2.10;;
37831;SDS011;23671;38.090;-122.570;2022-07-17T13:09:33;4.60;;;2.70;;
37831;SDS011;23671;38.090;-122.570;2022-07-17T13:12:01;7.97;;;2.53;;
37831;SDS011;23671;38.090;-122.570;2022-07-17T13:14:29;5.07;;;2.25;;
37831;SDS011;23671;38.090;-122.570;2022-07-17T13:16:56;6.10;;;2.30;;
37831;SDS011;23671;38.090;-122.570;2022-07-17T13:19:23;4.97;;;2.00;;
37831;SDS011;23671;38.090;-122.570;2022-07-17T13:21:50;5.38;;;2.30;;
37831;SDS011;23671;38.090;-122.570;2022-07-17T13:24:17;5.93;;;2.50;;
37831;SDS011;23671;38.090;-122.570;2022-07-17T13:26:44;4.53;;;2.58;;
37831;SDS011;23671;38.090;-122.570;2022-07-17T13:29:11;5.97;;;2.40;;
37831;SDS011;23671;38.090;-122.570;2022-07-17T13:31:38;6.43;;;2.35;;
37831;SDS011;23671;38.090;-122.570;2022-07-17T13:34:05;5.32;;;2.22;;
37831;SDS011;23671;38.090;-122.570;2022-07-17T13:36:32;5.95;;;2.60;;
37831;SDS011;23671;38.090;-122.570;2022-07-17T13:38:59;6.07;;;2.35;;
37831;SDS011;23671;38.090;-122.570;2022-07-17T13:41:26;6.07;;;2.55;;
37831;SDS011;23671;38.090;-122.570;2022-07-17T13:43:53;4.28;;;2.13;;
37831;SDS011;23671;38.090;-122.570;2022-07-17T13:46:20;5.13;;;2.13;;
37831;SDS011;23671;38.090;-122.570;2022-07-17T13:48:47;4.72;;;2.38;;
37831;SDS011;23671;38.090;-122.570;2022-07-17T13:51:14;8.00;;;2.65;;
37831;SDS011;23671;38.090;-122.570;2022-07-17T13:53:42;5.85;;;2.40;;
37831;SDS011;23671;38.090;-122.570;2022-07-17T13:56:09;6.22;;;2.25;;
37831;SDS011;23671;38.090;-122.570;2022-07-17T13:58:36;5.60;;;2.13;;
37831;SDS011;23671;38.090;-122.570;2022-07-17T14:01:03;6.30;;;2.47;;
37831;SDS011;23671;38.090;-122.570;2022-07-17T14:03:30;6.70;;;2.30;;
37831;SDS011;23671;38.090;-122.570;2022-07-17T14:05:58;4.20;;;2.42;;
37831;SDS011;23671;38.090;-122.570;2022-07-17T14:08:24;5.00;;;2.47;;
37831;SDS011;23671;38.090;-122.570;2022-07-17T14:10:51;5.75;;;2.42;;
37831;SDS011;23671;38.090;-122.570;2022-07-17T14:13:18;5.85;;;2.22;;
37831;SDS011;23671;38.090;-122.570;2022-07-17T14:15:45;5.10;;;2.55;;
37831;SDS011;23671;38.090;-122.570;2022-07-17T14:18:12;5.95;;;2.47;;
37831;SDS011;23671;38.090;-122.570;2022-07-17T14:20:40;4.70;;;2.30;;
37831;SDS011;23671;38.090;-122.570;2022-07-17T14:23:07;5.00;;;2.38;;
37831;SDS011;23671;38.090;-122.570;2022-07-17T14:25:34;5.35;;;2.33;;
37831;SDS011;23671;38.090;-122.570;2022-07-17T14:28:01;7.63;;;2.72;;
37831;SDS011;23671;38.090;-122.570;2022-07-17T14:30:28;6.13;;;2.20;;
37831;SDS011;23671;38.090;-122.570;2022-07-17T14:32:57;6.20;;;2.78;;
37831;SDS011;23671;38.090;-122.570;2022-07-17T14:35:24;6.57;;;2.25;;
37831;SDS011;23671;38.090;-122.570;2022-07-17T14:37:51;6.10;;;2.70;;
37831;SDS011;23671;38.090;-122.570;2022-07-17T14:40:18;5.88;;;2.38;;
37831;SDS011;23671;38.090;-122.570;2022-07-17T14:42:45;5.13;;;2.65;;
37831;SDS011;23671;38.090;-122.570;2022-07-17T14:45:11;10.60;;;3.13;;